sensor_id;sensor_type;location;lat;lon;timestamp;pressure;altitude;pressure_sealevel;temperature;humidity
15489;BME280;7846;48.830;9.116;2023-05-14T00:02:02;97858.66;;;15.87;71.95
15489;BME280;7846;48.830;9.116;2023-05-14T00:04:27;97867.09;;;15.97;71.36
15489;BME280;7846;48.830;9.116;2023-05-14T00:06:53;97859.09;;;15.91;71.45
15489;BME280;7846;48.830;9.116;2023-05-14T00:09:21;97847.38;;;15.85;71.24
15489;BME280;7846;48.830;9.116;2023-05-14T00:11:47;97847.44;;;15.92;70.93
15489;BME280;7846;48.830;9.116;2023-05-14T00:14:12;97842.50;;;15.89;71.36
15489;BME280;7846;48.830;9.116;2023-05-14T00:16:37;97849.09;;;15.93;71.09
15489;BME280;7846;48.830;9.116;2023-05-14T00:19:04;97842.00;;;15.79;71.53
15489;BME280;7846;48.830;9.116;2023-05-14T00:21:29;97834.75;;;15.66;71.87
15489;BME280;7846;48.830;9.116;2023-05-14T00:24:05;97842.28;;;15.47;72.16
15489;BME280;7846;48.830;9.116;2023-05-14T00:26:30;97844.63;;;15.57;72.55
15489;BME280;7846;48.830;9.116;2023-05-14T00:28:56;97830.81;;;15.62;71.70
15489;BME280;7846;48.830;9.116;2023-05-14T00:31:21;97837.28;;;15.59;72.05
15489;BME280;7846;48.830;9.116;2023-05-14T00:33:48;97828.28;;;15.54;72.41
15489;BME280;7846;48.830;9.116;2023-05-14T00:36:14;97832.28;;;15.28;73.87
15489;BME280;7846;48.830;9.116;2023-05-14T00:38:42;97825.88;;;15.22;74.41
15489;BME280;7846;48.830;9.116;2023-05-14T00:41:08;97811.69;;;15.30;73.87
15489;BME280;7846;48.830;9.116;2023-05-14T00:43:34;97812.13;;;15.34;74.04
15489;BME280;7846;48.830;9.116;2023-05-14T00:45:59;97818.44;;;15.33;73.93
15489;BME280;7846;48.830;9.116;2023-05-14T00:48:25;97823.63;;;15.41;73.56
15489;BME280;7846;48.830;9.116;2023-05-14T00:50:50;97826.53;;;15.46;73.41
15489;BME280;7846;48.830;9.116;2023-05-14T00:53:20;97821.63;;;15.43;73.58
15489;BME280;7846;48.830;9.116;2023-05-14T00:55:47;97827.84;;;15.50;73.77
15489;BME280;7846;48.830;9.116;2023-05-14T00:58:13;97819.97;;;15.20;74.48
15489;BME280;7846;48.830;9.116;2023-05-14T01:00:39;97825.28;;;15.42;74.01
15489;BME280;7846;48.830;9.116;2023-05-14T01:03:06;97820.63;;;15.44;73.37
15489;BME280;7846;48.830;9.116;2023-05-14T01:08:42;97809.06;;;15.52;73.52
15489;BME280;7846;48.830;9.116;2023-05-14T01:11:22;97808.41;;;15.49;73.54
15489;BME280;7846;48.830;9.116;2023-05-14T01:14:20;97810.56;;;15.39;73.29
15489;BME280;7846;48.830;9.116;2023-05-14T01:16:51;97813.44;;;15.23;74.35
15489;BME280;7846;48.830;9.116;2023-05-14T01:19:32;97802.19;;;14.85;76.12
15489;BME280;7846;48.830;9.116;2023-05-14T01:21:58;97810.59;;;14.73;75.40
15489;BME280;7846;48.830;9.116;2023-05-14T01:24:23;97808.06;;;14.50;76.79
15489;BME280;7846;48.830;9.116;2023-05-14T01:26:49;97799.81;;;14.60;75.46
15489;BME280;7846;48.830;9.116;2023-05-14T01:29:21;97806.94;;;14.74;76.21
15489;BME280;7846;48.830;9.116;2023-05-14T01:31:49;97803.47;;;14.74;75.92
15489;BME280;7846;48.830;9.116;2023-05-14T01:34:18;97796.09;;;14.55;75.28
15489;BME280;7846;48.830;9.116;2023-05-14T01:36:46;97790.22;;;14.44;76.90
15489;BME280;7846;48.830;9.116;2023-05-14T01:39:13;97803.22;;;14.54;76.00
15489;BME280;7846;48.830;9.116;2023-05-14T01:41:40;97802.53;;;14.37;75.53
15489;BME280;7846;48.830;9.116;2023-05-14T01:44:08;97800.59;;;14.31;75.47
15489;BME280;7846;48.830;9.116;2023-05-14T01:46:33;97792.81;;;14.15;75.33
15489;BME280;7846;48.830;9.116;2023-05-14T01:48:59;97793.53;;;14.09;75.96
15489;BME280;7846;48.830;9.116;2023-05-14T01:51:25;97802.69;;;14.06;77.20
15489;BME280;7846;48.830;9.116;2023-05-14T01:53:50;97801.94;;;14.12;77.01
15489;BME280;7846;48.830;9.116;2023-05-14T01:56:21;97805.00;;;14.39;76.60
15489;BME280;7846;48.830;9.116;2023-05-14T01:58:49;97802.63;;;14.29;76.92
15489;BME280;7846;48.830;9.116;2023-05-14T02:01:14;97804.91;;;13.79;77.91
15489;BME280;7846;48.830;9.116;2023-05-14T02:03:42;97792.78;;;13.62;78.33
15489;BME280;7846;48.830;9.116;2023-05-14T02:06:08;97790.91;;;13.71;77.56
15489;BME280;7846;48.830;9.116;2023-05-14T02:08:33;97805.72;;;13.80;76.74
15489;BME280;7846;48.830;9.116;2023-05-14T02:10:58;97794.41;;;13.86;76.59
15489;BME280;7846;48.830;9.116;2023-05-14T02:13:24;97800.31;;;13.73;77.42
15489;BME280;7846;48.830;9.116;2023-05-14T02:15:50;97803.91;;;13.80;76.55
15489;BME280;7846;48.830;9.116;2023-05-14T02:18:15;97795.03;;;13.73;75.84
15489;BME280;7846;48.830;9.116;2023-05-14T02:20:41;97796.59;;;13.60;75.84
15489;BME280;7846;48.830;9.116;2023-05-14T02:23:06;97801.78;;;13.76;75.95
15489;BME280;7846;48.830;9.116;2023-05-14T02:25:32;97803.31;;;13.70;77.14
15489;BME280;7846;48.830;9.116;2023-05-14T02:27:57;97804.88;;;13.56;77.69
15489;BME280;7846;48.830;9.116;2023-05-14T02:30:23;97802.72;;;13.60;77.36
15489;BME280;7846;48.830;9.116;2023-05-14T02:32:49;97807.97;;;13.68;77.17
15489;BME280;7846;48.830;9.116;2023-05-14T02:35:14;97808.81;;;13.61;77.36
15489;BME280;7846;48.830;9.116;2023-05-14T02:37:39;97801.00;;;13.67;76.73
15489;BME280;7846;48.830;9.116;2023-05-14T02:40:05;97790.84;;;13.56;77.13
15489;BME280;7846;48.830;9.116;2023-05-14T02:42:31;97798.94;;;13.77;76.46
15489;BME280;7846;48.830;9.116;2023-05-14T02:44:56;97801.59;;;13.77;75.85
15489;BME280;7846;48.830;9.116;2023-05-14T02:47:24;97804.06;;;13.79;76.09
15489;BME280;7846;48.830;9.116;2023-05-14T02:49:49;97797.97;;;13.55;76.88
15489;BME280;7846;48.830;9.116;2023-05-14T02:52:15;97802.84;;;13.44;77.90
15489;BME280;7846;48.830;9.116;2023-05-14T02:54:40;97798.50;;;13.51;78.36
15489;BME280;7846;48.830;9.116;2023-05-14T02:57:06;97809.41;;;13.71;77.22
15489;BME280;7846;48.830;9.116;2023-05-14T02:59:31;97806.00;;;13.85;76.35
15489;BME280;7846;48.830;9.116;2023-05-14T03:01:56;97794.41;;;13.86;76.20
15489;BME280;7846;48.830;9.116;2023-05-14T03:04:22;97810.31;;;14.01;76.07
15489;BME280;7846;48.830;9.116;2023-05-14T03:06:47;97811.97;;;14.02;76.11
15489;BME280;7846;48.830;9.116;2023-05-14T03:09:13;97811.06;;;13.95;76.22
15489;BME280;7846;48.830;9.116;2023-05-14T03:11:38;97805.69;;;14.03;75.95
15489;BME280;7846;48.830;9.116;2023-05-14T03:14:04;97815.53;;;13.94;76.49
15489;BME280;7846;48.830;9.116;2023-05-14T03:16:29;97815.09;;;14.06;76.68
15489;BME280;7846;48.830;9.116;2023-05-14T03:18:55;97815.47;;;14.17;76.09
15489;BME280;7846;48.830;9.116;2023-05-14T03:21:23;97794.31;;;14.32;75.72
15489;BME280;7846;48.830;9.116;2023-05-14T03:23:49;97794.38;;;14.09;76.06
15489;BME280;7846;48.830;9.116;2023-05-14T03:26:14;97794.41;;;13.86;76.78
15489;BME280;7846;48.830;9.116;2023-05-14T03:28:40;97788.88;;;13.96;76.18
15489;BME280;7846;48.830;9.116;2023-05-14T03:31:05;97800.84;;;14.07;76.44
15489;BME280;7846;48.830;9.116;2023-05-14T03:33:31;97807.56;;;13.79;77.96
15489;BME280;7846;48.830;9.116;2023-05-14T03:35:56;97811.59;;;14.05;76.49
15489;BME280;7846;48.830;9.116;2023-05-14T03:38:21;97800.28;;;13.96;76.78
15489;BME280;7846;48.830;9.116;2023-05-14T03:40:47;97805.41;;;13.98;77.00
15489;BME280;7846;48.830;9.116;2023-05-14T03:43:12;97815.56;;;14.09;76.53
15489;BME280;7846;48.830;9.116;2023-05-14T03:45:38;97806.16;;;14.07;76.37
15489;BME280;7846;48.830;9.116;2023-05-14T03:48:04;97795.88;;;13.89;76.63
15489;BME280;7846;48.830;9.116;2023-05-14T03:50:30;97803.75;;;13.97;76.26
15489;BME280;7846;48.830;9.116;2023-05-14T03:52:55;97810.84;;;13.36;78.01
15489;BME280;7846;48.830;9.116;2023-05-14T03:55:21;97802.09;;;13.58;77.96
15489;BME280;7846;48.830;9.116;2023-05-14T03:57:47;97798.25;;;13.84;76.82
15489;BME280;7846;48.830;9.116;2023-05-14T04:00:13;97800.03;;;13.68;76.63
15489;BME280;7846;48.830;9.116;2023-05-14T04:02:38;97794.56;;;13.47;77.44
15489;BME280;7846;48.830;9.116;2023-05-14T04:05:04;97783.69;;;13.65;76.39
15489;BME280;7846;48.830;9.116;2023-05-14T04:07:29;97788.59;;;13.68;76.11
15489;BME280;7846;48.830;9.116;2023-05-14T04:09:55;97789.31;;;13.85;75.66
15489;BME280;7846;48.830;9.116;2023-05-14T04:12:21;97798.75;;;14.02;76.16
15489;BME280;7846;48.830;9.116;2023-05-14T04:14:49;97796.41;;;13.84;76.13
15489;BME280;7846;48.830;9.116;2023-05-14T04:17:17;97802.31;;;14.09;75.97
15489;BME280;7846;48.830;9.116;2023-05-14T04:19:44;97798.94;;;13.77;76.23
15489;BME280;7846;48.830;9.116;2023-05-14T04:22:10;97803.28;;;13.93;75.94
15489;BME280;7846;48.830;9.116;2023-05-14T04:24:37;97817.34;;;14.09;75.67
15489;BME280;7846;48.830;9.116;2023-05-14T04:27:02;97799.94;;;14.14;74.90
15489;BME280;7846;48.830;9.116;2023-05-14T04:29:29;97785.66;;;13.86;75.61
15489;BME280;7846;48.830;9.116;2023-05-14T04:31:54;97799.94;;;13.99;75.44
15489;BME280;7846;48.830;9.116;2023-05-14T04:34:20;97787.75;;;13.90;75.31
15489;BME280;7846;48.830;9.116;2023-05-14T04:36:45;97789.88;;;13.95;75.44
15489;BME280;7846;48.830;9.116;2023-05-14T04:39:12;97799.13;;;14.14;75.25
15489;BME280;7846;48.830;9.116;2023-05-14T04:41:37;97803.75;;;13.97;75.27
15489;BME280;7846;48.830;9.116;2023-05-14T04:44:03;97793.50;;;13.94;75.08
15489;BME280;7846;48.830;9.116;2023-05-14T04:46:29;97793.63;;;14.00;75.70
15489;BME280;7846;48.830;9.116;2023-05-14T04:48:55;97784.50;;;14.03;74.71
15489;BME280;7846;48.830;9.116;2023-05-14T04:51:24;97790.97;;;14.00;75.05
15489;BME280;7846;48.830;9.116;2023-05-14T04:53:50;97799.25;;;14.20;75.07
15489;BME280;7846;48.830;9.116;2023-05-14T04:56:16;97800.78;;;14.15;74.89
15489;BME280;7846;48.830;9.116;2023-05-14T04:58:41;97802.72;;;14.21;74.72
15489;BME280;7846;48.830;9.116;2023-05-14T05:01:06;97799.22;;;14.06;74.87
15489;BME280;7846;48.830;9.116;2023-05-14T05:03:32;97814.84;;;14.45;74.13
15489;BME280;7846;48.830;9.116;2023-05-14T05:05:57;97805.09;;;14.45;74.23
15489;BME280;7846;48.830;9.116;2023-05-14T05:08:23;97804.00;;;14.40;73.98
15489;BME280;7846;48.830;9.116;2023-05-14T05:10:48;97793.50;;;14.46;73.88
15489;BME280;7846;48.830;9.116;2023-05-14T05:13:14;97798.38;;;14.20;75.00
15489;BME280;7846;48.830;9.116;2023-05-14T05:15:44;97797.69;;;14.26;74.82
15489;BME280;7846;48.830;9.116;2023-05-14T05:18:09;97802.38;;;14.39;74.02
15489;BME280;7846;48.830;9.116;2023-05-14T05:20:36;97801.31;;;14.10;75.50
15489;BME280;7846;48.830;9.116;2023-05-14T05:23:03;97792.53;;;13.95;75.74
15489;BME280;7846;48.830;9.116;2023-05-14T05:25:28;97804.09;;;13.94;75.73
15489;BME280;7846;48.830;9.116;2023-05-14T05:27:54;97794.28;;;13.65;77.16
15489;BME280;7846;48.830;9.116;2023-05-14T05:30:20;97797.19;;;14.08;76.07
15489;BME280;7846;48.830;9.116;2023-05-14T05:32:45;97798.69;;;13.72;76.02
15489;BME280;7846;48.830;9.116;2023-05-14T05:35:10;97796.91;;;13.65;77.40
15489;BME280;7846;48.830;9.116;2023-05-14T05:37:36;97803.50;;;13.69;76.78
15489;BME280;7846;48.830;9.116;2023-05-14T05:40:02;97803.53;;;14.36;75.13
15489;BME280;7846;48.830;9.116;2023-05-14T05:42:28;97797.34;;;14.88;73.00
15489;BME280;7846;48.830;9.116;2023-05-14T05:44:54;97795.47;;;15.04;72.18
15489;BME280;7846;48.830;9.116;2023-05-14T05:47:20;97811.88;;;14.77;71.35
15489;BME280;7846;48.830;9.116;2023-05-14T05:49:45;97812.66;;;14.34;72.90
15489;BME280;7846;48.830;9.116;2023-05-14T05:52:13;97805.84;;;14.84;71.97
15489;BME280;7846;48.830;9.116;2023-05-14T05:54:39;97803.47;;;14.59;72.29
15489;BME280;7846;48.830;9.116;2023-05-14T05:57:04;97806.03;;;14.67;72.61
15489;BME280;7846;48.830;9.116;2023-05-14T05:59:34;97803.19;;;14.98;72.58
15489;BME280;7846;48.830;9.116;2023-05-14T06:02:00;97794.78;;;15.16;70.85
15489;BME280;7846;48.830;9.116;2023-05-14T06:04:25;97796.19;;;15.12;70.85
15489;BME280;7846;48.830;9.116;2023-05-14T06:06:50;97793.19;;;15.00;71.02
15489;BME280;7846;48.830;9.116;2023-05-14T06:09:16;97804.09;;;15.27;70.38
15489;BME280;7846;48.830;9.116;2023-05-14T06:11:44;97792.25;;;15.44;69.33
15489;BME280;7846;48.830;9.116;2023-05-14T06:14:10;97804.19;;;15.34;69.20
15489;BME280;7846;48.830;9.116;2023-05-14T06:16:35;97798.66;;;15.71;68.66
15489;BME280;7846;48.830;9.116;2023-05-14T06:19:01;97804.94;;;15.49;68.75
15489;BME280;7846;48.830;9.116;2023-05-14T06:21:26;97789.44;;;15.67;68.00
15489;BME280;7846;48.830;9.116;2023-05-14T06:23:52;97788.41;;;15.90;67.43
15489;BME280;7846;48.830;9.116;2023-05-14T06:26:17;97804.06;;;16.06;66.94
15489;BME280;7846;48.830;9.116;2023-05-14T06:28:43;97797.75;;;16.07;66.39
15489;BME280;7846;48.830;9.116;2023-05-14T06:31:09;97808.44;;;15.92;67.74
15489;BME280;7846;48.830;9.116;2023-05-14T06:33:35;97811.75;;;16.23;66.27
15489;BME280;7846;48.830;9.116;2023-05-14T06:36:03;97806.09;;;16.32;66.94
15489;BME280;7846;48.830;9.116;2023-05-14T06:38:28;97805.63;;;15.72;67.84
15489;BME280;7846;48.830;9.116;2023-05-14T06:40:54;97805.06;;;15.77;67.87
15489;BME280;7846;48.830;9.116;2023-05-14T06:43:19;97807.25;;;15.95;67.30
15489;BME280;7846;48.830;9.116;2023-05-14T06:45:48;97791.84;;;16.12;67.84
15489;BME280;7846;48.830;9.116;2023-05-14T06:48:15;97806.41;;;16.51;65.51
15489;BME280;7846;48.830;9.116;2023-05-14T06:50:43;97801.78;;;16.31;65.60
15489;BME280;7846;48.830;9.116;2023-05-14T06:53:09;97794.22;;;16.63;64.65
15489;BME280;7846;48.830;9.116;2023-05-14T06:55:35;97804.47;;;16.38;65.53
15489;BME280;7846;48.830;9.116;2023-05-14T06:58:00;97798.59;;;16.42;65.90
15489;BME280;7846;48.830;9.116;2023-05-14T07:00:26;97794.78;;;16.52;65.42
15489;BME280;7846;48.830;9.116;2023-05-14T07:02:52;97794.81;;;16.58;65.43
15489;BME280;7846;48.830;9.116;2023-05-14T07:05:17;97804.81;;;16.91;65.25
15489;BME280;7846;48.830;9.116;2023-05-14T07:07:43;97803.16;;;16.90;64.52
15489;BME280;7846;48.830;9.116;2023-05-14T07:10:10;97802.66;;;17.14;64.76
15489;BME280;7846;48.830;9.116;2023-05-14T07:12:36;97803.13;;;16.77;64.63
15489;BME280;7846;48.830;9.116;2023-05-14T07:15:03;97806.06;;;17.02;64.57
15489;BME280;7846;48.830;9.116;2023-05-14T07:17:29;97797.16;;;16.75;64.59
15489;BME280;7846;48.830;9.116;2023-05-14T07:19:59;97796.94;;;17.24;64.64
15489;BME280;7846;48.830;9.116;2023-05-14T07:22:24;97795.03;;;17.05;63.56
15489;BME280;7846;48.830;9.116;2023-05-14T07:24:50;97798.94;;;16.67;64.38
15489;BME280;7846;48.830;9.116;2023-05-14T07:27:16;97802.31;;;17.37;63.94
15489;BME280;7846;48.830;9.116;2023-05-14T07:29:42;97788.34;;;17.15;63.25
15489;BME280;7846;48.830;9.116;2023-05-14T07:32:08;97790.75;;;16.62;65.14
15489;BME280;7846;48.830;9.116;2023-05-14T07:34:33;97789.38;;;17.28;63.47
15489;BME280;7846;48.830;9.116;2023-05-14T07:36:59;97790.00;;;17.30;62.72
15489;BME280;7846;48.830;9.116;2023-05-14T07:39:26;97785.72;;;17.42;62.24
15489;BME280;7846;48.830;9.116;2023-05-14T07:41:51;97782.25;;;17.41;62.23
15489;BME280;7846;48.830;9.116;2023-05-14T07:44:19;97778.25;;;17.92;61.30
15489;BME280;7846;48.830;9.116;2023-05-14T07:46:45;97786.25;;;17.85;60.63
15489;BME280;7846;48.830;9.116;2023-05-14T07:49:11;97771.09;;;17.93;61.01
15489;BME280;7846;48.830;9.116;2023-05-14T07:51:36;97768.00;;;17.76;61.14
15489;BME280;7846;48.830;9.116;2023-05-14T07:54:01;97781.13;;;17.84;61.12
15489;BME280;7846;48.830;9.116;2023-05-14T07:56:27;97778.44;;;18.10;61.13
15489;BME280;7846;48.830;9.116;2023-05-14T07:58:55;97776.72;;;18.62;60.44
15489;BME280;7846;48.830;9.116;2023-05-14T08:01:22;97770.88;;;18.99;58.51
15489;BME280;7846;48.830;9.116;2023-05-14T08:03:49;97768.38;;;19.04;58.12
15489;BME280;7846;48.830;9.116;2023-05-14T08:06:14;97769.13;;;18.59;59.48
15489;BME280;7846;48.830;9.116;2023-05-14T08:08:42;97770.59;;;19.14;58.62
15489;BME280;7846;48.830;9.116;2023-05-14T08:11:09;97769.34;;;19.16;59.12
15489;BME280;7846;48.830;9.116;2023-05-14T08:13:40;97770.72;;;19.32;58.08
15489;BME280;7846;48.830;9.116;2023-05-14T08:16:07;97768.72;;;19.52;58.47
15489;BME280;7846;48.830;9.116;2023-05-14T08:18:32;97768.53;;;19.16;57.89
15489;BME280;7846;48.830;9.116;2023-05-14T08:20:58;97768.25;;;19.30;59.37
15489;BME280;7846;48.830;9.116;2023-05-14T08:23:35;97771.44;;;19.46;57.76
15489;BME280;7846;48.830;9.116;2023-05-14T08:26:04;97768.84;;;19.32;58.27
15489;BME280;7846;48.830;9.116;2023-05-14T08:28:32;97771.84;;;20.06;56.78
15489;BME280;7846;48.830;9.116;2023-05-14T08:30:58;97762.09;;;18.92;58.61
15489;BME280;7846;48.830;9.116;2023-05-14T08:33:24;97763.16;;;20.11;56.72
15489;BME280;7846;48.830;9.116;2023-05-14T08:35:52;97747.94;;;20.11;56.05
15489;BME280;7846;48.830;9.116;2023-05-14T08:38:21;97756.66;;;20.25;55.33
15489;BME280;7846;48.830;9.116;2023-05-14T08:40:57;97766.00;;;19.91;56.43
15489;BME280;7846;48.830;9.116;2023-05-14T08:46:38;97751.06;;;19.83;57.19
15489;BME280;7846;48.830;9.116;2023-05-14T08:52:01;97754.56;;;20.27;57.49
15489;BME280;7846;48.830;9.116;2023-05-14T08:54:29;97745.34;;;20.85;55.48
15489;BME280;7846;48.830;9.116;2023-05-14T08:56:56;97748.94;;;20.35;55.43
15489;BME280;7846;48.830;9.116;2023-05-14T08:59:25;97740.50;;;21.54;53.72
15489;BME280;7846;48.830;9.116;2023-05-14T09:01:52;97748.31;;;21.55;54.01
15489;BME280;7846;48.830;9.116;2023-05-14T09:04:20;97745.91;;;20.87;53.90
15489;BME280;7846;48.830;9.116;2023-05-14T09:06:51;97747.44;;;21.43;54.32
15489;BME280;7846;48.830;9.116;2023-05-14T09:09:18;97733.63;;;21.58;53.38
15489;BME280;7846;48.830;9.116;2023-05-14T09:11:48;97744.41;;;22.63;52.11
15489;BME280;7846;48.830;9.116;2023-05-14T09:14:14;97753.44;;;20.78;55.17
15489;BME280;7846;48.830;9.116;2023-05-14T09:16:40;97747.56;;;21.36;54.27
15489;BME280;7846;48.830;9.116;2023-05-14T09:19:11;97745.34;;;21.33;53.41
15489;BME280;7846;48.830;9.116;2023-05-14T09:21:36;97741.69;;;20.61;54.43
15489;BME280;7846;48.830;9.116;2023-05-14T09:24:02;97738.59;;;19.77;56.58
15489;BME280;7846;48.830;9.116;2023-05-14T09:26:38;97732.00;;;20.41;55.16
15489;BME280;7846;48.830;9.116;2023-05-14T09:29:04;97724.97;;;19.53;56.51
15489;BME280;7846;48.830;9.116;2023-05-14T09:31:33;97734.03;;;18.76;57.78
15489;BME280;7846;48.830;9.116;2023-05-14T09:33:59;97736.97;;;18.54;59.98
15489;BME280;7846;48.830;9.116;2023-05-14T09:38:55;97732.91;;;19.67;57.48
15489;BME280;7846;48.830;9.116;2023-05-14T09:41:24;97721.94;;;19.75;56.96
15489;BME280;7846;48.830;9.116;2023-05-14T09:43:50;97726.84;;;19.78;56.06
15489;BME280;7846;48.830;9.116;2023-05-14T09:46:16;97718.16;;;19.57;57.35
15489;BME280;7846;48.830;9.116;2023-05-14T09:48:41;97725.66;;;19.10;58.40
15489;BME280;7846;48.830;9.116;2023-05-14T09:51:08;97723.06;;;19.36;59.45
15489;BME280;7846;48.830;9.116;2023-05-14T09:53:34;97715.38;;;19.14;58.42
15489;BME280;7846;48.830;9.116;2023-05-14T09:56:01;97712.41;;;19.86;57.29
15489;BME280;7846;48.830;9.116;2023-05-14T09:58:29;97714.28;;;19.85;56.39
15489;BME280;7846;48.830;9.116;2023-05-14T10:00:56;97713.06;;;19.81;56.35
15489;BME280;7846;48.830;9.116;2023-05-14T10:03:24;97708.16;;;20.03;55.87
15489;BME280;7846;48.830;9.116;2023-05-14T10:05:50;97709.88;;;19.91;55.28
15489;BME280;7846;48.830;9.116;2023-05-14T10:08:23;97708.44;;;20.31;54.94
15489;BME280;7846;48.830;9.116;2023-05-14T10:10:52;97708.16;;;21.25;51.90
15489;BME280;7846;48.830;9.116;2023-05-14T10:13:21;97707.88;;;21.15;52.30
15489;BME280;7846;48.830;9.116;2023-05-14T10:15:48;97707.34;;;21.06;53.09
15489;BME280;7846;48.830;9.116;2023-05-14T10:18:18;97701.47;;;22.63;50.74
15489;BME280;7846;48.830;9.116;2023-05-14T10:20:47;97702.34;;;22.92;49.29
15489;BME280;7846;48.830;9.116;2023-05-14T10:23:15;97700.69;;;22.91;48.93
15489;BME280;7846;48.830;9.116;2023-05-14T10:25:41;97707.78;;;23.26;48.86
15489;BME280;7846;48.830;9.116;2023-05-14T10:28:07;97706.91;;;23.54;48.83
15489;BME280;7846;48.830;9.116;2023-05-14T10:30:32;97711.03;;;24.46;47.19
15489;BME280;7846;48.830;9.116;2023-05-14T10:33:24;97710.88;;;24.75;45.47
15489;BME280;7846;48.830;9.116;2023-05-14T10:36:13;97717.13;;;23.69;44.78
15489;BME280;7846;48.830;9.116;2023-05-14T10:38:38;97707.84;;;23.77;45.45
15489;BME280;7846;48.830;9.116;2023-05-14T10:41:13;97699.03;;;24.15;44.51
15489;BME280;7846;48.830;9.116;2023-05-14T10:43:43;97702.59;;;22.15;49.09
15489;BME280;7846;48.830;9.116;2023-05-14T10:46:10;97706.25;;;21.44;52.32
15489;BME280;7846;48.830;9.116;2023-05-14T10:48:38;97701.84;;;20.16;55.48
15489;BME280;7846;48.830;9.116;2023-05-14T10:51:06;97691.56;;;19.94;56.30
15489;BME280;7846;48.830;9.116;2023-05-14T10:53:34;97691.41;;;19.89;55.24
15489;BME280;7846;48.830;9.116;2023-05-14T10:56:05;97690.72;;;20.37;55.09
15489;BME280;7846;48.830;9.116;2023-05-14T10:58:34;97679.00;;;19.20;57.77
15489;BME280;7846;48.830;9.116;2023-05-14T11:01:00;97676.00;;;19.91;56.10
15489;BME280;7846;48.830;9.116;2023-05-14T11:03:29;97679.69;;;19.08;57.73
15489;BME280;7846;48.830;9.116;2023-05-14T11:06:02;97667.88;;;20.90;54.87
15489;BME280;7846;48.830;9.116;2023-05-14T11:08:27;97667.72;;;21.68;52.04
15489;BME280;7846;48.830;9.116;2023-05-14T11:10:53;97666.97;;;22.96;50.65
15489;BME280;7846;48.830;9.116;2023-05-14T11:13:20;97668.50;;;22.39;51.35
15489;BME280;7846;48.830;9.116;2023-05-14T11:15:45;97670.97;;;20.57;53.26
15489;BME280;7846;48.830;9.116;2023-05-14T11:18:28;97662.75;;;21.30;50.86
15489;BME280;7846;48.830;9.116;2023-05-14T11:20:57;97659.56;;;22.10;51.55
15489;BME280;7846;48.830;9.116;2023-05-14T11:23:23;97652.91;;;21.54;49.65
15489;BME280;7846;48.830;9.116;2023-05-14T11:25:52;97658.19;;;21.19;50.61
15489;BME280;7846;48.830;9.116;2023-05-14T11:28:24;97656.22;;;20.84;51.54
15489;BME280;7846;48.830;9.116;2023-05-14T11:30:51;97653.31;;;20.86;52.08
15489;BME280;7846;48.830;9.116;2023-05-14T11:33:17;97644.06;;;21.00;51.97
15489;BME280;7846;48.830;9.116;2023-05-14T11:35:43;97650.47;;;20.32;52.98
15489;BME280;7846;48.830;9.116;2023-05-14T11:38:17;97649.75;;;20.25;53.96
15489;BME280;7846;48.830;9.116;2023-05-14T11:40:53;97639.53;;;21.12;53.07
15489;BME280;7846;48.830;9.116;2023-05-14T11:43:19;97635.31;;;21.46;52.11
15489;BME280;7846;48.830;9.116;2023-05-14T11:45:52;97649.50;;;21.35;51.20
15489;BME280;7846;48.830;9.116;2023-05-14T11:48:22;97647.44;;;21.37;49.96
15489;BME280;7846;48.830;9.116;2023-05-14T11:50:49;97641.59;;;20.68;51.20
15489;BME280;7846;48.830;9.116;2023-05-14T11:53:21;97640.91;;;21.80;50.63
15489;BME280;7846;48.830;9.116;2023-05-14T11:55:48;97631.13;;;23.18;48.35
15489;BME280;7846;48.830;9.116;2023-05-14T11:58:14;97627.03;;;23.83;46.08
15489;BME280;7846;48.830;9.116;2023-05-14T12:00:49;97626.09;;;22.65;47.20
15489;BME280;7846;48.830;9.116;2023-05-14T12:03:14;97635.94;;;22.76;48.39
15489;BME280;7846;48.830;9.116;2023-05-14T12:05:40;97625.06;;;22.66;46.67
15489;BME280;7846;48.830;9.116;2023-05-14T12:08:41;97629.06;;;22.92;47.44
15489;BME280;7846;48.830;9.116;2023-05-14T12:11:07;97629.47;;;22.20;47.26
15489;BME280;7846;48.830;9.116;2023-05-14T12:13:33;97623.09;;;21.86;49.93
15489;BME280;7846;48.830;9.116;2023-05-14T12:16:00;97618.47;;;22.45;48.98
15489;BME280;7846;48.830;9.116;2023-05-14T12:18:30;97619.38;;;20.68;51.97
15489;BME280;7846;48.830;9.116;2023-05-14T12:21:01;97614.34;;;20.90;51.78
15489;BME280;7846;48.830;9.116;2023-05-14T12:23:28;97611.69;;;22.42;49.87
15489;BME280;7846;48.830;9.116;2023-05-14T12:25:54;97611.09;;;22.52;48.48
15489;BME280;7846;48.830;9.116;2023-05-14T12:28:22;97615.81;;;23.19;47.02
15489;BME280;7846;48.830;9.116;2023-05-14T12:30:47;97611.78;;;22.19;48.67
15489;BME280;7846;48.830;9.116;2023-05-14T12:33:13;97602.22;;;22.52;48.21
15489;BME280;7846;48.830;9.116;2023-05-14T12:35:39;97605.97;;;21.75;48.20
15489;BME280;7846;48.830;9.116;2023-05-14T12:38:04;97600.00;;;21.26;49.67
15489;BME280;7846;48.830;9.116;2023-05-14T12:40:29;97603.31;;;21.75;49.12
15489;BME280;7846;48.830;9.116;2023-05-14T12:42:56;97594.72;;;22.13;48.05
15489;BME280;7846;48.830;9.116;2023-05-14T12:45:21;97599.47;;;21.06;50.35
15489;BME280;7846;48.830;9.116;2023-05-14T12:47:47;97595.44;;;22.32;49.30
15489;BME280;7846;48.830;9.116;2023-05-14T12:50:12;97594.25;;;22.28;48.30
15489;BME280;7846;48.830;9.116;2023-05-14T12:52:39;97590.25;;;23.67;47.75
15489;BME280;7846;48.830;9.116;2023-05-14T12:55:05;97592.25;;;24.59;46.57
15489;BME280;7846;48.830;9.116;2023-05-14T12:57:31;97591.28;;;24.71;45.21
15489;BME280;7846;48.830;9.116;2023-05-14T12:59:56;97596.31;;;24.89;44.88
15489;BME280;7846;48.830;9.116;2023-05-14T13:02:22;97588.84;;;25.28;43.92
15489;BME280;7846;48.830;9.116;2023-05-14T13:04:47;97581.25;;;25.57;42.78
15489;BME280;7846;48.830;9.116;2023-05-14T13:07:12;97572.47;;;24.49;43.55
15489;BME280;7846;48.830;9.116;2023-05-14T13:09:38;97570.31;;;22.38;48.01
15489;BME280;7846;48.830;9.116;2023-05-14T13:12:04;97575.88;;;22.08;48.50
15489;BME280;7846;48.830;9.116;2023-05-14T13:14:29;97575.69;;;23.29;46.43
15489;BME280;7846;48.830;9.116;2023-05-14T13:16:54;97569.94;;;21.94;47.82
15489;BME280;7846;48.830;9.116;2023-05-14T13:19:20;97570.31;;;23.29;47.05
15489;BME280;7846;48.830;9.116;2023-05-14T13:21:45;97563.56;;;25.02;44.45